sensor_id;sensor_type;location;lat;lon;timestamp;pressure;altitude;pressure_sealevel;temperature;humidity
3544;BME280;1786;52.870;9.578;2023-01-25T00:02:17;102818.16;;;9.06;55.82
3544;BME280;1786;52.870;9.578;2023-01-25T00:04:44;102810.13;;;9.13;55.65
3544;BME280;1786;52.870;9.578;2023-01-25T00:07:11;102813.13;;;8.94;56.04
3544;BME280;1786;52.870;9.578;2023-01-25T00:09:37;102818.34;;;8.01;57.96
3544;BME280;1786;52.870;9.578;2023-01-25T00:12:04;102812.25;;;7.99;57.55
3544;BME280;1786;52.870;9.578;2023-01-25T00:14:30;102804.81;;;7.71;58.42
3544;BME280;1786;52.870;9.578;2023-01-25T00:16:57;102796.75;;;7.80;58.64
3544;BME280;1786;52.870;9.578;2023-01-25T00:19:23;102802.13;;;8.26;57.24
3544;BME280;1786;52.870;9.578;2023-01-25T00:21:50;102800.69;;;8.09;57.63
3544;BME280;1786;52.870;9.578;2023-01-25T00:24:16;102802.06;;;7.79;57.83
3544;BME280;1786;52.870;9.578;2023-01-25T00:26:43;102807.88;;;7.98;58.14
3544;BME280;1786;52.870;9.578;2023-01-25T00:29:12;102798.53;;;7.78;58.23
3544;BME280;1786;52.870;9.578;2023-01-25T00:34:32;102788.09;;;9.15;55.33
3544;BME280;1786;52.870;9.578;2023-01-25T00:39:43;102791.53;;;8.29;57.33
3544;BME280;1786;52.870;9.578;2023-01-25T00:42:11;102782.03;;;8.21;57.60
3544;BME280;1786;52.870;9.578;2023-01-25T00:44:38;102774.00;;;7.78;58.72
3544;BME280;1786;52.870;9.578;2023-01-25T00:47:08;102785.19;;;7.91;58.41
3544;BME280;1786;52.870;9.578;2023-01-25T00:49:35;102786.81;;;7.42;59.46
3544;BME280;1786;52.870;9.578;2023-01-25T00:52:03;102783.94;;;7.59;59.35
3544;BME280;1786;52.870;9.578;2023-01-25T00:54:30;102779.06;;;7.34;59.86
3544;BME280;1786;52.870;9.578;2023-01-25T00:56:56;102778.88;;;7.45;59.49
3544;BME280;1786;52.870;9.578;2023-01-25T00:59:24;102778.63;;;7.62;59.57
3544;BME280;1786;52.870;9.578;2023-01-25T01:01:52;102772.03;;;8.42;57.53
3544;BME280;1786;52.870;9.578;2023-01-25T01:04:19;102773.34;;;8.64;57.26
3544;BME280;1786;52.870;9.578;2023-01-25T01:06:46;102774.56;;;8.47;57.40
3544;BME280;1786;52.870;9.578;2023-01-25T01:09:15;102780.50;;;8.58;57.15
3544;BME280;1786;52.870;9.578;2023-01-25T01:11:42;102771.47;;;7.70;58.83
3544;BME280;1786;52.870;9.578;2023-01-25T01:14:09;102777.41;;;7.83;58.37
3544;BME280;1786;52.870;9.578;2023-01-25T01:16:36;102770.66;;;8.19;57.77
3544;BME280;1786;52.870;9.578;2023-01-25T01:19:03;102767.69;;;8.39;57.14
3544;BME280;1786;52.870;9.578;2023-01-25T01:21:30;102765.56;;;7.57;58.99
3544;BME280;1786;52.870;9.578;2023-01-25T01:23:57;102761.28;;;6.87;61.41
3544;BME280;1786;52.870;9.578;2023-01-25T01:26:24;102764.25;;;7.85;59.01
3544;BME280;1786;52.870;9.578;2023-01-25T01:28:51;102755.88;;;8.12;58.52
3544;BME280;1786;52.870;9.578;2023-01-25T01:31:20;102744.22;;;8.72;57.20
3544;BME280;1786;52.870;9.578;2023-01-25T01:34:03;102744.25;;;8.22;57.88
3544;BME280;1786;52.870;9.578;2023-01-25T01:36:30;102749.19;;;7.93;58.87
3544;BME280;1786;52.870;9.578;2023-01-25T01:38:58;102739.56;;;8.38;58.11
3544;BME280;1786;52.870;9.578;2023-01-25T01:41:25;102741.34;;;8.38;57.88
3544;BME280;1786;52.870;9.578;2023-01-25T01:43:52;102729.53;;;8.59;57.66
3544;BME280;1786;52.870;9.578;2023-01-25T01:46:30;102732.72;;;8.75;57.12
3544;BME280;1786;52.870;9.578;2023-01-25T01:49:03;102732.84;;;8.69;56.91
3544;BME280;1786;52.870;9.578;2023-01-25T01:54:15;102732.72;;;7.82;58.93
3544;BME280;1786;52.870;9.578;2023-01-25T01:56:53;102728.56;;;8.16;58.45
3544;BME280;1786;52.870;9.578;2023-01-25T01:59:24;102711.31;;;8.47;57.68
3544;BME280;1786;52.870;9.578;2023-01-25T02:01:52;102717.13;;;8.64;56.55
3544;BME280;1786;52.870;9.578;2023-01-25T02:04:41;102721.78;;;8.03;57.85
3544;BME280;1786;52.870;9.578;2023-01-25T02:07:32;102721.34;;;7.78;57.96
3544;BME280;1786;52.870;9.578;2023-01-25T02:10:03;102724.06;;;7.73;58.92
3544;BME280;1786;52.870;9.578;2023-01-25T02:12:30;102714.31;;;7.80;58.48
3544;BME280;1786;52.870;9.578;2023-01-25T02:14:58;102720.22;;;7.93;58.36
3544;BME280;1786;52.870;9.578;2023-01-25T02:17:27;102722.84;;;7.93;58.27
3544;BME280;1786;52.870;9.578;2023-01-25T02:20:02;102726.28;;;7.98;58.86
3544;BME280;1786;52.870;9.578;2023-01-25T02:22:42;102716.09;;;7.78;59.28
3544;BME280;1786;52.870;9.578;2023-01-25T02:25:12;102713.00;;;7.54;59.39
3544;BME280;1786;52.870;9.578;2023-01-25T02:27:43;102707.34;;;7.77;59.13
3544;BME280;1786;52.870;9.578;2023-01-25T02:30:11;102704.47;;;8.36;57.73
3544;BME280;1786;52.870;9.578;2023-01-25T02:32:38;102714.13;;;8.37;57.39
3544;BME280;1786;52.870;9.578;2023-01-25T02:35:05;102711.03;;;8.15;57.78
3544;BME280;1786;52.870;9.578;2023-01-25T02:37:32;102710.22;;;7.62;58.98
3544;BME280;1786;52.870;9.578;2023-01-25T02:39:59;102710.19;;;8.13;57.73
3544;BME280;1786;52.870;9.578;2023-01-25T02:42:29;102704.69;;;8.71;56.76
3544;BME280;1786;52.870;9.578;2023-01-25T02:44:59;102701.56;;;8.05;58.23
3544;BME280;1786;52.870;9.578;2023-01-25T02:47:25;102700.44;;;8.18;58.17
3544;BME280;1786;52.870;9.578;2023-01-25T02:49:52;102693.50;;;7.12;59.94
3544;BME280;1786;52.870;9.578;2023-01-25T02:52:19;102705.94;;;6.98;60.87
3544;BME280;1786;52.870;9.578;2023-01-25T02:54:45;102693.72;;;6.97;61.11
3544;BME280;1786;52.870;9.578;2023-01-25T02:57:12;102695.53;;;6.22;62.58
3544;BME280;1786;52.870;9.578;2023-01-25T02:59:41;102695.72;;;6.05;63.67
3544;BME280;1786;52.870;9.578;2023-01-25T03:02:09;102681.88;;;6.68;62.77
3544;BME280;1786;52.870;9.578;2023-01-25T03:04:36;102673.44;;;7.05;61.57
3544;BME280;1786;52.870;9.578;2023-01-25T03:07:02;102671.44;;;7.73;60.27
3544;BME280;1786;52.870;9.578;2023-01-25T03:09:29;102672.66;;;7.54;60.26
3544;BME280;1786;52.870;9.578;2023-01-25T03:11:56;102666.09;;;7.78;60.09
3544;BME280;1786;52.870;9.578;2023-01-25T03:14:23;102664.22;;;7.85;59.50
3544;BME280;1786;52.870;9.578;2023-01-25T03:16:50;102664.94;;;7.93;59.29
3544;BME280;1786;52.870;9.578;2023-01-25T03:19:19;102659.44;;;8.07;58.60
3544;BME280;1786;52.870;9.578;2023-01-25T03:21:46;102660.81;;;8.70;57.95
3544;BME280;1786;52.870;9.578;2023-01-25T03:24:13;102642.22;;;7.89;58.65
3544;BME280;1786;52.870;9.578;2023-01-25T03:26:44;102640.69;;;8.22;58.57
3544;BME280;1786;52.870;9.578;2023-01-25T03:29:35;102629.97;;;8.73;57.49
3544;BME280;1786;52.870;9.578;2023-01-25T03:32:07;102627.91;;;8.47;57.63
3544;BME280;1786;52.870;9.578;2023-01-25T03:34:34;102631.00;;;9.05;56.55
3544;BME280;1786;52.870;9.578;2023-01-25T03:37:02;102630.00;;;8.30;57.86
3544;BME280;1786;52.870;9.578;2023-01-25T03:39:30;102622.50;;;8.92;56.57
3544;BME280;1786;52.870;9.578;2023-01-25T03:41:57;102623.44;;;8.07;57.96
3544;BME280;1786;52.870;9.578;2023-01-25T03:44:24;102617.56;;;8.36;57.44
3544;BME280;1786;52.870;9.578;2023-01-25T03:46:50;102629.06;;;7.89;58.61
3544;BME280;1786;52.870;9.578;2023-01-25T03:49:18;102625.88;;;7.71;59.42
3544;BME280;1786;52.870;9.578;2023-01-25T03:51:44;102631.44;;;8.01;58.39
3544;BME280;1786;52.870;9.578;2023-01-25T03:54:11;102633.03;;;7.13;60.08
3544;BME280;1786;52.870;9.578;2023-01-25T03:56:39;102625.53;;;7.90;58.90
3544;BME280;1786;52.870;9.578;2023-01-25T03:59:14;102622.50;;;8.53;58.10
3544;BME280;1786;52.870;9.578;2023-01-25T04:01:42;102619.59;;;8.65;57.34
3544;BME280;1786;52.870;9.578;2023-01-25T04:04:09;102619.16;;;8.84;56.93
3544;BME280;1786;52.870;9.578;2023-01-25T04:06:38;102603.94;;;8.17;58.17
3544;BME280;1786;52.870;9.578;2023-01-25T04:09:05;102610.88;;;9.01;56.74
3544;BME280;1786;52.870;9.578;2023-01-25T04:11:37;102608.81;;;8.76;57.04
3544;BME280;1786;52.870;9.578;2023-01-25T04:14:04;102607.94;;;8.76;57.01
3544;BME280;1786;52.870;9.578;2023-01-25T04:16:38;102601.94;;;9.06;56.15
3544;BME280;1786;52.870;9.578;2023-01-25T04:19:27;102607.22;;;7.84;58.35
3544;BME280;1786;52.870;9.578;2023-01-25T04:21:57;102600.94;;;8.34;57.69
3544;BME280;1786;52.870;9.578;2023-01-25T04:24:29;102599.44;;;9.36;55.23
3544;BME280;1786;52.870;9.578;2023-01-25T04:26:56;102597.97;;;8.88;56.15
3544;BME280;1786;52.870;9.578;2023-01-25T04:29:23;102601.34;;;8.95;55.65
3544;BME280;1786;52.870;9.578;2023-01-25T04:32:06;102590.00;;;8.12;57.66
3544;BME280;1786;52.870;9.578;2023-01-25T04:34:34;102596.75;;;8.66;57.33
3544;BME280;1786;52.870;9.578;2023-01-25T04:37:00;102598.13;;;8.82;56.80
3544;BME280;1786;52.870;9.578;2023-01-25T04:39:32;102599.97;;;9.49;55.15
3544;BME280;1786;52.870;9.578;2023-01-25T04:41:58;102589.59;;;9.43;55.65
3544;BME280;1786;52.870;9.578;2023-01-25T04:44:25;102593.31;;;9.68;55.28
3544;BME280;1786;52.870;9.578;2023-01-25T04:46:52;102594.69;;;9.82;54.95
3544;BME280;1786;52.870;9.578;2023-01-25T04:49:18;102597.53;;;9.07;55.96
3544;BME280;1786;52.870;9.578;2023-01-25T04:51:45;102587.91;;;9.04;56.25
3544;BME280;1786;52.870;9.578;2023-01-25T04:54:12;102593.25;;;9.03;56.55
3544;BME280;1786;52.870;9.578;2023-01-25T04:56:39;102597.63;;;9.38;55.67
3544;BME280;1786;52.870;9.578;2023-01-25T04:59:06;102581.41;;;9.53;55.62
3544;BME280;1786;52.870;9.578;2023-01-25T05:01:33;102576.84;;;9.26;55.52
3544;BME280;1786;52.870;9.578;2023-01-25T05:04:03;102584.53;;;9.68;55.05
3544;BME280;1786;52.870;9.578;2023-01-25T05:06:37;102580.69;;;9.47;55.84
3544;BME280;1786;52.870;9.578;2023-01-25T05:09:04;102579.50;;;9.59;55.28
3544;BME280;1786;52.870;9.578;2023-01-25T05:11:33;102576.03;;;9.57;55.26
3544;BME280;1786;52.870;9.578;2023-01-25T05:14:04;102571.13;;;10.05;54.58
3544;BME280;1786;52.870;9.578;2023-01-25T05:16:32;102577.56;;;9.96;54.79
3544;BME280;1786;52.870;9.578;2023-01-25T05:19:00;102571.97;;;10.07;54.58
3544;BME280;1786;52.870;9.578;2023-01-25T05:21:42;102570.59;;;10.24;53.98
3544;BME280;1786;52.870;9.578;2023-01-25T05:24:30;102573.19;;;9.95;54.40
3544;BME280;1786;52.870;9.578;2023-01-25T05:27:01;102562.81;;;9.58;55.10
3544;BME280;1786;52.870;9.578;2023-01-25T05:29:55;102563.75;;;9.87;54.79
3544;BME280;1786;52.870;9.578;2023-01-25T05:32:29;102564.22;;;9.37;55.30
3544;BME280;1786;52.870;9.578;2023-01-25T05:34:57;102564.44;;;9.29;56.02
3544;BME280;1786;52.870;9.578;2023-01-25T05:37:26;102554.50;;;9.39;55.78
3544;BME280;1786;52.870;9.578;2023-01-25T05:39:58;102557.00;;;9.11;55.81
3544;BME280;1786;52.870;9.578;2023-01-25T05:42:24;102562.81;;;8.90;56.55
3544;BME280;1786;52.870;9.578;2023-01-25T05:44:51;102554.91;;;8.52;57.52
3544;BME280;1786;52.870;9.578;2023-01-25T05:47:18;102546.78;;;8.61;57.35
3544;BME280;1786;52.870;9.578;2023-01-25T05:49:45;102551.00;;;8.69;57.20
3544;BME280;1786;52.870;9.578;2023-01-25T05:52:31;102550.03;;;8.73;57.60
3544;BME280;1786;52.870;9.578;2023-01-25T05:54:58;102545.00;;;9.32;56.70
3544;BME280;1786;52.870;9.578;2023-01-25T05:57:25;102556.66;;;10.76;53.89
3544;BME280;1786;52.870;9.578;2023-01-25T05:59:51;102546.06;;;8.92;56.51
3544;BME280;1786;52.870;9.578;2023-01-25T06:02:18;102540.34;;;9.09;56.26
3544;BME280;1786;52.870;9.578;2023-01-25T06:04:45;102537.59;;;9.14;56.64
3544;BME280;1786;52.870;9.578;2023-01-25T06:07:12;102541.59;;;8.94;56.57
3544;BME280;1786;52.870;9.578;2023-01-25T06:09:39;102539.81;;;9.29;56.63
3544;BME280;1786;52.870;9.578;2023-01-25T06:12:06;102541.56;;;9.63;55.73
3544;BME280;1786;52.870;9.578;2023-01-25T06:14:33;102532.31;;;9.78;55.39
3544;BME280;1786;52.870;9.578;2023-01-25T06:17:01;102529.66;;;9.79;55.25
3544;BME280;1786;52.870;9.578;2023-01-25T06:19:47;102538.56;;;9.09;55.95
3544;BME280;1786;52.870;9.578;2023-01-25T06:22:25;102535.63;;;8.87;56.94
3544;BME280;1786;52.870;9.578;2023-01-25T06:24:52;102533.25;;;8.38;57.52
3544;BME280;1786;52.870;9.578;2023-01-25T06:27:18;102538.97;;;8.16;58.59
3544;BME280;1786;52.870;9.578;2023-01-25T06:29:45;102533.97;;;8.46;57.95
3544;BME280;1786;52.870;9.578;2023-01-25T06:32:12;102531.47;;;8.40;58.45
3544;BME280;1786;52.870;9.578;2023-01-25T06:34:39;102530.38;;;8.86;57.73
3544;BME280;1786;52.870;9.578;2023-01-25T06:37:09;102529.03;;;9.04;57.08
3544;BME280;1786;52.870;9.578;2023-01-25T06:39:36;102536.94;;;9.05;56.83
3544;BME280;1786;52.870;9.578;2023-01-25T06:42:02;102536.84;;;9.08;56.89
3544;BME280;1786;52.870;9.578;2023-01-25T06:44:29;102529.91;;;9.39;56.59
3544;BME280;1786;52.870;9.578;2023-01-25T06:46:56;102532.09;;;9.56;55.86
3544;BME280;1786;52.870;9.578;2023-01-25T06:49:23;102532.94;;;9.56;56.27
3544;BME280;1786;52.870;9.578;2023-01-25T06:51:50;102534.53;;;9.29;56.74
3544;BME280;1786;52.870;9.578;2023-01-25T06:54:16;102532.00;;;9.59;55.65
3544;BME280;1786;52.870;9.578;2023-01-25T06:56:43;102530.28;;;9.58;56.12
3544;BME280;1786;52.870;9.578;2023-01-25T06:59:09;102534.94;;;9.79;55.24
3544;BME280;1786;52.870;9.578;2023-01-25T07:01:36;102544.56;;;9.49;56.23
3544;BME280;1786;52.870;9.578;2023-01-25T07:04:03;102541.84;;;9.52;55.67
3544;BME280;1786;52.870;9.578;2023-01-25T07:06:31;102538.03;;;9.31;56.75
3544;BME280;1786;52.870;9.578;2023-01-25T07:09:03;102546.91;;;9.60;56.22
3544;BME280;1786;52.870;9.578;2023-01-25T07:11:30;102548.47;;;9.67;56.06
3544;BME280;1786;52.870;9.578;2023-01-25T07:13:57;102539.34;;;9.79;55.65
3544;BME280;1786;52.870;9.578;2023-01-25T07:16:23;102539.56;;;9.71;55.83
3544;BME280;1786;52.870;9.578;2023-01-25T07:18:50;102536.75;;;10.07;55.23
3544;BME280;1786;52.870;9.578;2023-01-25T07:21:19;102533.53;;;9.97;54.94
3544;BME280;1786;52.870;9.578;2023-01-25T07:23:47;102537.84;;;10.00;55.08
3544;BME280;1786;52.870;9.578;2023-01-25T07:28:44;102532.19;;;9.52;56.08
3544;BME280;1786;52.870;9.578;2023-01-25T07:31:10;102520.91;;;9.77;55.57
3544;BME280;1786;52.870;9.578;2023-01-25T07:33:37;102518.00;;;9.86;55.44
3544;BME280;1786;52.870;9.578;2023-01-25T07:36:06;102521.16;;;9.37;56.44
3544;BME280;1786;52.870;9.578;2023-01-25T07:38:33;102508.72;;;8.73;57.82
3544;BME280;1786;52.870;9.578;2023-01-25T07:41:00;102518.41;;;9.07;57.28
3544;BME280;1786;52.870;9.578;2023-01-25T07:43:26;102514.69;;;9.48;55.94
3544;BME280;1786;52.870;9.578;2023-01-25T07:45:59;102518.53;;;10.27;54.68
3544;BME280;1786;52.870;9.578;2023-01-25T07:48:26;102508.03;;;11.32;52.45
3544;BME280;1786;52.870;9.578;2023-01-25T07:50:57;102509.31;;;11.20;52.14
3544;BME280;1786;52.870;9.578;2023-01-25T07:54:02;102505.31;;;9.99;55.25
3544;BME280;1786;52.870;9.578;2023-01-25T07:56:34;102507.00;;;10.31;54.13
3544;BME280;1786;52.870;9.578;2023-01-25T07:59:01;102499.19;;;12.05;50.89
3544;BME280;1786;52.870;9.578;2023-01-25T08:01:30;102503.63;;;12.27;50.71
3544;BME280;1786;52.870;9.578;2023-01-25T08:04:00;102508.41;;;11.46;51.46
3544;BME280;1786;52.870;9.578;2023-01-25T08:06:28;102507.25;;;11.03;52.49
3544;BME280;1786;52.870;9.578;2023-01-25T08:09:10;102499.44;;;9.89;55.07
3544;BME280;1786;52.870;9.578;2023-01-25T08:11:37;102490.88;;;9.81;55.72
3544;BME280;1786;52.870;9.578;2023-01-25T08:14:04;102494.56;;;9.12;56.95
3544;BME280;1786;52.870;9.578;2023-01-25T08:16:31;102500.25;;;8.96;57.55
3544;BME280;1786;52.870;9.578;2023-01-25T08:18:59;102490.34;;;9.04;57.54
3544;BME280;1786;52.870;9.578;2023-01-25T08:21:27;102492.25;;;9.32;57.25
3544;BME280;1786;52.870;9.578;2023-01-25T08:23:58;102483.72;;;9.55;56.62
3544;BME280;1786;52.870;9.578;2023-01-25T08:26:26;102469.19;;;9.40;56.36
3544;BME280;1786;52.870;9.578;2023-01-25T08:28:53;102473.06;;;9.58;56.84
3544;BME280;1786;52.870;9.578;2023-01-25T08:31:27;102473.66;;;9.37;57.23
3544;BME280;1786;52.870;9.578;2023-01-25T08:33:55;102477.31;;;9.32;57.24
3544;BME280;1786;52.870;9.578;2023-01-25T08:36:22;102475.28;;;9.09;57.98
3544;BME280;1786;52.870;9.578;2023-01-25T08:38:58;102462.16;;;9.08;57.44
3544;BME280;1786;52.870;9.578;2023-01-25T08:41:27;102470.28;;;9.00;57.87
3544;BME280;1786;52.870;9.578;2023-01-25T08:43:54;102473.44;;;9.13;57.57
3544;BME280;1786;52.870;9.578;2023-01-25T08:46:22;102469.22;;;9.06;57.74
3544;BME280;1786;52.870;9.578;2023-01-25T08:48:54;102470.16;;;8.69;58.48
3544;BME280;1786;52.870;9.578;2023-01-25T08:51:22;102458.56;;;8.78;58.49
3544;BME280;1786;52.870;9.578;2023-01-25T08:53:49;102459.44;;;9.09;58.25
3544;BME280;1786;52.870;9.578;2023-01-25T08:56:16;102449.53;;;9.19;58.28
3544;BME280;1786;52.870;9.578;2023-01-25T08:58:45;102447.13;;;9.43;57.71
3544;BME280;1786;52.870;9.578;2023-01-25T09:01:15;102450.31;;;9.54;57.39
3544;BME280;1786;52.870;9.578;2023-01-25T09:03:44;102448.25;;;9.65;57.19
3544;BME280;1786;52.870;9.578;2023-01-25T09:06:12;102448.75;;;9.47;57.10
3544;BME280;1786;52.870;9.578;2023-01-25T09:08:39;102437.47;;;9.71;57.25
3544;BME280;1786;52.870;9.578;2023-01-25T09:11:12;102442.53;;;9.49;57.69
3544;BME280;1786;52.870;9.578;2023-01-25T09:13:40;102432.84;;;9.19;58.57
3544;BME280;1786;52.870;9.578;2023-01-25T09:16:14;102422.66;;;9.38;57.80
3544;BME280;1786;52.870;9.578;2023-01-25T09:18:42;102425.75;;;9.21;58.06
3544;BME280;1786;52.870;9.578;2023-01-25T09:21:11;102422.88;;;9.30;57.90
3544;BME280;1786;52.870;9.578;2023-01-25T09:23:38;102418.19;;;9.08;58.22
3544;BME280;1786;52.870;9.578;2023-01-25T09:26:17;102410.84;;;9.20;58.33
3544;BME280;1786;52.870;9.578;2023-01-25T09:28:50;102410.38;;;9.05;58.67
3544;BME280;1786;52.870;9.578;2023-01-25T09:31:18;102409.19;;;8.50;59.86
3544;BME280;1786;52.870;9.578;2023-01-25T09:33:58;102404.69;;;8.16;60.82
3544;BME280;1786;52.870;9.578;2023-01-25T09:36:24;102401.13;;;8.56;60.16
3544;BME280;1786;52.870;9.578;2023-01-25T09:38:52;102404.66;;;8.55;60.39
3544;BME280;1786;52.870;9.578;2023-01-25T09:46:44;102405.00;;;8.76;59.83
3544;BME280;1786;52.870;9.578;2023-01-25T09:54:53;102392.47;;;8.51;60.56
3544;BME280;1786;52.870;9.578;2023-01-25T09:57:28;102380.44;;;8.41;60.45
3544;BME280;1786;52.870;9.578;2023-01-25T09:59:55;102386.66;;;8.73;59.85
3544;BME280;1786;52.870;9.578;2023-01-25T10:05:16;102374.63;;;8.95;59.42
3544;BME280;1786;52.870;9.578;2023-01-25T10:07:57;102379.56;;;9.07;59.28
3544;BME280;1786;52.870;9.578;2023-01-25T10:10:33;102378.31;;;9.19;59.53
3544;BME280;1786;52.870;9.578;2023-01-25T10:13:01;102377.09;;;8.33;60.95
3544;BME280;1786;52.870;9.578;2023-01-25T10:15:40;102374.31;;;8.75;60.11
3544;BME280;1786;52.870;9.578;2023-01-25T10:18:20;102377.25;;;8.27;61.13
3544;BME280;1786;52.870;9.578;2023-01-25T10:20:58;102374.34;;;8.37;61.23
3544;BME280;1786;52.870;9.578;2023-01-25T10:26:32;102367.91;;;7.77;63.19
3544;BME280;1786;52.870;9.578;2023-01-25T10:29:12;102362.94;;;8.01;62.59
3544;BME280;1786;52.870;9.578;2023-01-25T10:31:47;102359.16;;;8.49;61.51
3544;BME280;1786;52.870;9.578;2023-01-25T10:34:19;102358.09;;;8.56;61.28
3544;BME280;1786;52.870;9.578;2023-01-25T10:36:49;102354.44;;;8.61;61.39
3544;BME280;1786;52.870;9.578;2023-01-25T10:39:18;102352.84;;;8.56;61.13
3544;BME280;1786;52.870;9.578;2023-01-25T10:41:52;102345.41;;;8.36;61.20
3544;BME280;1786;52.870;9.578;2023-01-25T10:44:24;102342.06;;;8.65;61.29
3544;BME280;1786;52.870;9.578;2023-01-25T10:46:55;102334.13;;;8.98;60.29
3544;BME280;1786;52.870;9.578;2023-01-25T10:49:34;102332.38;;;9.28;59.92
3544;BME280;1786;52.870;9.578;2023-01-25T10:52:14;102335.34;;;9.16;59.83
3544;BME280;1786;52.870;9.578;2023-01-25T10:54:41;102328.56;;;9.07;59.98
3544;BME280;1786;52.870;9.578;2023-01-25T10:57:13;102322.94;;;8.90;61.21
3544;BME280;1786;52.870;9.578;2023-01-25T10:59:45;102320.59;;;8.79;61.13
3544;BME280;1786;52.870;9.578;2023-01-25T11:02:37;102306.72;;;8.72;61.16
3544;BME280;1786;52.870;9.578;2023-01-25T11:05:27;102299.72;;;9.02;60.28
3544;BME280;1786;52.870;9.578;2023-01-25T11:07:54;102296.25;;;9.00;60.23
3544;BME280;1786;52.870;9.578;2023-01-25T11:15:47;102274.91;;;9.66;59.12
3544;BME280;1786;52.870;9.578;2023-01-25T11:18:19;102272.03;;;9.45;59.77
3544;BME280;1786;52.870;9.578;2023-01-25T11:21:02;102271.00;;;9.21;59.87
3544;BME280;1786;52.870;9.578;2023-01-25T11:23:29;102267.25;;;9.30;60.06
3544;BME280;1786;52.870;9.578;2023-01-25T11:26:12;102267.06;;;9.06;60.64
3544;BME280;1786;52.870;9.578;2023-01-25T11:28:40;102260.44;;;9.23;60.57
3544;BME280;1786;52.870;9.578;2023-01-25T11:31:10;102257.28;;;8.80;61.22
3544;BME280;1786;52.870;9.578;2023-01-25T11:33:39;102250.03;;;8.88;61.12
3544;BME280;1786;52.870;9.578;2023-01-25T11:36:12;102244.41;;;9.29;60.05
3544;BME280;1786;52.870;9.578;2023-01-25T11:46:55;102221.53;;;9.29;60.18
3544;BME280;1786;52.870;9.578;2023-01-25T11:52:27;102214.06;;;9.42;60.19
3544;BME280;1786;52.870;9.578;2023-01-25T11:55:38;102196.38;;;9.46;60.47
3544;BME280;1786;52.870;9.578;2023-01-25T12:01:02;102185.16;;;9.13;60.85
3544;BME280;1786;52.870;9.578;2023-01-25T12:03:45;102181.22;;;8.98;61.01
3544;BME280;1786;52.870;9.578;2023-01-25T12:12:02;102152.63;;;9.12;61.01
3544;BME280;1786;52.870;9.578;2023-01-25T12:15:05;102143.84;;;9.12;60.35
3544;BME280;1786;52.870;9.578;2023-01-25T12:23:20;102132.38;;;9.41;60.17
3544;BME280;1786;52.870;9.578;2023-01-25T12:26:04;102133.25;;;9.66;58.70
3544;BME280;1786;52.870;9.578;2023-01-25T12:28:41;102121.47;;;9.25;60.34
3544;BME280;1786;52.870;9.578;2023-01-25T12:31:21;102106.28;;;9.31;59.80
3544;BME280;1786;52.870;9.578;2023-01-25T12:33:55;102114.56;;;9.21;59.94
3544;BME280;1786;52.870;9.578;2023-01-25T12:36:29;102106.44;;;10.73;56.81
3544;BME280;1786;52.870;9.578;2023-01-25T12:39:12;102107.25;;;10.29;57.28
3544;BME280;1786;52.870;9.578;2023-01-25T12:41:46;102090.75;;;9.97;57.56
3544;BME280;1786;52.870;9.578;2023-01-25T12:46:58;102071.31;;;9.51;59.58
3544;BME280;1786;52.870;9.578;2023-01-25T12:49:36;102066.56;;;9.36;59.52
3544;BME280;1786;52.870;9.578;2023-01-25T12:52:17;102071.53;;;9.45;59.34
3544;BME280;1786;52.870;9.578;2023-01-25T12:54:46;102062.56;;;9.24;60.42
3544;BME280;1786;52.870;9.578;2023-01-25T12:59:59;102041.72;;;9.67;59.28
3544;BME280;1786;52.870;9.578;2023-01-25T13:05:26;102030.38;;;10.12;58.07
3544;BME280;1786;52.870;9.578;2023-01-25T13:11:32;102026.53;;;9.97;58.73
3544;BME280;1786;52.870;9.578;2023-01-25T13:14:39;102015.41;;;9.65;59.20
3544;BME280;1786;52.870;9.578;2023-01-25T13:17:30;102002.03;;;9.70;58.91
3544;BME280;1786;52.870;9.578;2023-01-25T13:20:07;102006.91;;;10.04;58.58
3544;BME280;1786;52.870;9.578;2023-01-25T13:25:21;102001.53;;;9.60;59.25
3544;BME280;1786;52.870;9.578;2023-01-25T13:27:48;101999.34;;;9.23;59.47
3544;BME280;1786;52.870;9.578;2023-01-25T13:35:27;102002.19;;;8.63;60.80
3544;BME280;1786;52.870;9.578;2023-01-25T13:38:40;101993.47;;;8.61;61.39
3544;BME280;1786;52.870;9.578;2023-01-25T13:41:04;101993.28;;;8.68;61.50
3544;BME280;1786;52.870;9.578;2023-01-25T13:43:38;101998.25;;;9.03;61.23
3544;BME280;1786;52.870;9.578;2023-01-25T13:46:07;101998.50;;;8.96;60.86
3544;BME280;1786;52.870;9.578;2023-01-25T13:48:44;101987.81;;;8.74;61.89
3544;BME280;1786;52.870;9.578;2023-01-25T13:51:13;101982.53;;;8.74;61.55
3544;BME280;1786;52.870;9.578;2023-01-25T13:53:53;101977.13;;;9.30;60.45
3544;BME280;1786;52.870;9.578;2023-01-25T13:56:29;101977.47;;;8.94;60.88
3544;BME280;1786;52.870;9.578;2023-01-25T13:58:56;101979.31;;;8.92;60.85
3544;BME280;1786;52.870;9.578;2023-01-25T14:01:24;101974.63;;;9.00;60.37
3544;BME280;1786;52.870;9.578;2023-01-25T14:03:55;101969.72;;;8.90;60.67
3544;BME280;1786;52.870;9.578;2023-01-25T14:06:38;101970.66;;;9.14;60.65
3544;BME280;1786;52.870;9.578;2023-01-25T14:09:15;101971.72;;;9.33;60.10
3544;BME280;1786;52.870;9.578;2023-01-25T14:14:25;101974.13;;;9.14;60.15
3544;BME280;1786;52.870;9.578;2023-01-25T14:19:38;101991.56;;;8.93;60.39
3544;BME280;1786;52.870;9.578;2023-01-25T14:24:39;101982.66;;;8.71;61.10
3544;BME280;1786;52.870;9.578;2023-01-25T14:27:05;101979.13;;;8.97;60.62
3544;BME280;1786;52.870;9.578;2023-01-25T14:29:37;101981.22;;;9.12;60.04
3544;BME280;1786;52.870;9.578;2023-01-25T14:32:04;101975.78;;;9.42;59.77
3544;BME280;1786;52.870;9.578;2023-01-25T14:34:31;101967.59;;;9.49;59.06
3544;BME280;1786;52.870;9.578;2023-01-25T14:37:18;101975.75;;;9.18;59.60
3544;BME280;1786;52.870;9.578;2023-01-25T14:39:48;101961.88;;;9.13;60.14
3544;BME280;1786;52.870;9.578;2023-01-25T14:42:15;101967.72;;;9.21;60.17
3544;BME280;1786;52.870;9.578;2023-01-25T14:44:43;101964.22;;;8.96;60.33
3544;BME280;1786;52.870;9.578;2023-01-25T14:47:21;101961.66;;;9.19;59.74
3544;BME280;1786;52.870;9.578;2023-01-25T14:49:48;101955.63;;;9.64;59.06
3544;BME280;1786;52.870;9.578;2023-01-25T14:52:18;101959.78;;;8.98;60.06
3544;BME280;1786;52.870;9.578;2023-01-25T14:54:55;101943.56;;;9.08;59.93
3544;BME280;1786;52.870;9.578;2023-01-25T14:57:30;101943.38;;;8.63;60.48
3544;BME280;1786;52.870;9.578;2023-01-25T14:59:58;101936.06;;;8.71;60.85
3544;BME280;1786;52.870;9.578;2023-01-25T15:02:38;101938.56;;;8.49;61.13
3544;BME280;1786;52.870;9.578;2023-01-25T15:05:34;101941.25;;;8.99;60.08
3544;BME280;1786;52.870;9.578;2023-01-25T15:10:35;101937.91;;;9.19;59.68
3544;BME280;1786;52.870;9.578;2023-01-25T15:15:54;101921.88;;;9.72;59.00